sensor_id;sensor_type;location;lat;lon;timestamp;P1;durP1;ratioP1;P2;durP2;ratioP2
4867;SDS011;2448;48.086;10.862;2022-07-29T00:02:24;3.07;;;1.43;;
4867;SDS011;2448;48.086;10.862;2022-07-29T00:04:49;1.57;;;1.47;;
4867;SDS011;2448;48.086;10.862;2022-07-29T00:07:15;7.20;;;1.83;;
4867;SDS011;2448;48.086;10.862;2022-07-29T00:09:40;1.70;;;1.60;;
4867;SDS011;2448;48.086;10.862;2022-07-29T00:12:05;2.50;;;2.00;;
4867;SDS011;2448;48.086;10.862;2022-07-29T00:14:31;1.80;;;1.70;;
4867;SDS011;2448;48.086;10.862;2022-07-29T00:16:56;1.20;;;1.20;;
4867;SDS011;2448;48.086;10.862;2022-07-29T00:19:22;1.80;;;1.30;;
4867;SDS011;2448;48.086;10.862;2022-07-29T00:21:47;1.77;;;1.47;;
4867;SDS011;2448;48.086;10.862;2022-07-29T00:24:12;1.50;;;1.40;;
4867;SDS011;2448;48.086;10.862;2022-07-29T00:26:38;1.97;;;1.57;;
4867;SDS011;2448;48.086;10.862;2022-07-29T00:29:03;1.80;;;1.70;;
4867;SDS011;2448;48.086;10.862;2022-07-29T00:31:29;2.20;;;1.33;;
4867;SDS011;2448;48.086;10.862;2022-07-29T00:33:54;1.73;;;1.53;;
4867;SDS011;2448;48.086;10.862;2022-07-29T00:36:20;1.87;;;1.73;;
4867;SDS011;2448;48.086;10.862;2022-07-29T00:38:49;3.10;;;2.10;;
4867;SDS011;2448;48.086;10.862;2022-07-29T00:41:15;1.80;;;1.70;;
4867;SDS011;2448;48.086;10.862;2022-07-29T00:43:40;1.60;;;1.50;;
4867;SDS011;2448;48.086;10.862;2022-07-29T00:46:06;4.20;;;1.97;;
4867;SDS011;2448;48.086;10.862;2022-07-29T00:48:31;1.57;;;1.57;;
4867;SDS011;2448;48.086;10.862;2022-07-29T00:50:57;2.33;;;1.90;;
4867;SDS011;2448;48.086;10.862;2022-07-29T00:53:23;2.30;;;1.73;;
4867;SDS011;2448;48.086;10.862;2022-07-29T00:55:49;2.40;;;1.53;;
4867;SDS011;2448;48.086;10.862;2022-07-29T00:58:14;1.07;;;1.03;;
4867;SDS011;2448;48.086;10.862;2022-07-29T01:00:40;1.67;;;1.43;;
4867;SDS011;2448;48.086;10.862;2022-07-29T01:03:06;8.90;;;1.50;;
4867;SDS011;2448;48.086;10.862;2022-07-29T01:05:31;1.30;;;1.20;;
4867;SDS011;2448;48.086;10.862;2022-07-29T01:07:57;1.67;;;1.57;;
4867;SDS011;2448;48.086;10.862;2022-07-29T01:10:23;1.43;;;1.37;;
4867;SDS011;2448;48.086;10.862;2022-07-29T01:12:49;1.30;;;1.30;;
4867;SDS011;2448;48.086;10.862;2022-07-29T01:15:15;6.97;;;1.50;;
4867;SDS011;2448;48.086;10.862;2022-07-29T01:20:12;3.90;;;1.70;;
4867;SDS011;2448;48.086;10.862;2022-07-29T01:30:51;2.03;;;1.23;;
4867;SDS011;2448;48.086;10.862;2022-07-29T01:33:17;1.33;;;1.33;;
4867;SDS011;2448;48.086;10.862;2022-07-29T01:36:01;1.53;;;1.43;;
4867;SDS011;2448;48.086;10.862;2022-07-29T01:38:27;1.30;;;1.30;;
4867;SDS011;2448;48.086;10.862;2022-07-29T01:40:55;1.33;;;1.33;;
4867;SDS011;2448;48.086;10.862;2022-07-29T01:43:27;2.13;;;1.93;;
4867;SDS011;2448;48.086;10.862;2022-07-29T01:45:56;2.03;;;1.30;;
4867;SDS011;2448;48.086;10.862;2022-07-29T01:48:31;2.07;;;1.50;;
4867;SDS011;2448;48.086;10.862;2022-07-29T01:51:06;4.10;;;1.30;;
4867;SDS011;2448;48.086;10.862;2022-07-29T01:53:37;0.97;;;0.97;;
4867;SDS011;2448;48.086;10.862;2022-07-29T01:56:04;2.60;;;1.37;;
4867;SDS011;2448;48.086;10.862;2022-07-29T01:58:31;2.30;;;1.20;;
4867;SDS011;2448;48.086;10.862;2022-07-29T02:00:57;1.20;;;1.20;;
4867;SDS011;2448;48.086;10.862;2022-07-29T02:03:23;1.20;;;1.10;;
4867;SDS011;2448;48.086;10.862;2022-07-29T02:05:49;1.90;;;1.10;;
4867;SDS011;2448;48.086;10.862;2022-07-29T02:08:15;0.90;;;0.90;;
4867;SDS011;2448;48.086;10.862;2022-07-29T02:10:42;1.40;;;1.30;;
4867;SDS011;2448;48.086;10.862;2022-07-29T02:13:09;2.73;;;1.47;;
4867;SDS011;2448;48.086;10.862;2022-07-29T02:15:36;2.17;;;1.13;;
4867;SDS011;2448;48.086;10.862;2022-07-29T02:18:05;2.27;;;1.37;;
4867;SDS011;2448;48.086;10.862;2022-07-29T02:20:32;3.37;;;1.63;;
4867;SDS011;2448;48.086;10.862;2022-07-29T02:22:58;1.47;;;1.33;;
4867;SDS011;2448;48.086;10.862;2022-07-29T02:25:24;1.70;;;1.60;;
4867;SDS011;2448;48.086;10.862;2022-07-29T02:27:51;2.43;;;1.70;;
4867;SDS011;2448;48.086;10.862;2022-07-29T02:30:17;2.93;;;1.20;;
4867;SDS011;2448;48.086;10.862;2022-07-29T02:32:43;1.50;;;1.50;;
4867;SDS011;2448;48.086;10.862;2022-07-29T02:35:10;2.90;;;1.30;;
4867;SDS011;2448;48.086;10.862;2022-07-29T02:37:37;1.23;;;1.20;;
4867;SDS011;2448;48.086;10.862;2022-07-29T02:40:04;6.83;;;1.40;;
4867;SDS011;2448;48.086;10.862;2022-07-29T02:42:31;0.90;;;0.90;;
4867;SDS011;2448;48.086;10.862;2022-07-29T02:44:57;1.20;;;1.20;;
4867;SDS011;2448;48.086;10.862;2022-07-29T02:47:23;1.40;;;1.30;;
4867;SDS011;2448;48.086;10.862;2022-07-29T02:54:56;1.63;;;1.53;;
4867;SDS011;2448;48.086;10.862;2022-07-29T02:57:26;3.63;;;1.57;;
4867;SDS011;2448;48.086;10.862;2022-07-29T02:59:53;1.40;;;1.30;;
4867;SDS011;2448;48.086;10.862;2022-07-29T03:02:21;1.57;;;1.20;;
4867;SDS011;2448;48.086;10.862;2022-07-29T03:04:47;1.20;;;1.20;;
4867;SDS011;2448;48.086;10.862;2022-07-29T03:07:14;1.30;;;1.20;;
4867;SDS011;2448;48.086;10.862;2022-07-29T03:09:40;1.30;;;1.20;;
4867;SDS011;2448;48.086;10.862;2022-07-29T03:12:06;3.13;;;1.30;;
4867;SDS011;2448;48.086;10.862;2022-07-29T03:14:32;2.00;;;1.80;;
4867;SDS011;2448;48.086;10.862;2022-07-29T03:16:58;1.80;;;1.77;;
4867;SDS011;2448;48.086;10.862;2022-07-29T03:19:24;4.03;;;2.00;;
4867;SDS011;2448;48.086;10.862;2022-07-29T03:21:51;2.23;;;2.10;;
4867;SDS011;2448;48.086;10.862;2022-07-29T03:24:29;2.60;;;2.40;;
4867;SDS011;2448;48.086;10.862;2022-07-29T03:26:56;2.40;;;2.20;;
4867;SDS011;2448;48.086;10.862;2022-07-29T03:29:21;1.70;;;1.60;;
4867;SDS011;2448;48.086;10.862;2022-07-29T03:31:47;2.60;;;2.40;;
4867;SDS011;2448;48.086;10.862;2022-07-29T03:34:12;2.10;;;1.97;;
4867;SDS011;2448;48.086;10.862;2022-07-29T03:36:38;1.87;;;1.77;;
4867;SDS011;2448;48.086;10.862;2022-07-29T03:39:03;7.20;;;2.20;;
4867;SDS011;2448;48.086;10.862;2022-07-29T03:41:29;8.03;;;2.60;;
4867;SDS011;2448;48.086;10.862;2022-07-29T03:43:55;4.13;;;2.30;;
4867;SDS011;2448;48.086;10.862;2022-07-29T03:46:22;1.63;;;1.57;;
4867;SDS011;2448;48.086;10.862;2022-07-29T03:48:49;1.90;;;1.80;;
4867;SDS011;2448;48.086;10.862;2022-07-29T03:51:15;2.40;;;2.20;;
4867;SDS011;2448;48.086;10.862;2022-07-29T03:53:41;2.10;;;2.00;;
4867;SDS011;2448;48.086;10.862;2022-07-29T03:56:06;3.50;;;2.40;;
4867;SDS011;2448;48.086;10.862;2022-07-29T03:58:32;2.50;;;2.00;;
4867;SDS011;2448;48.086;10.862;2022-07-29T04:00:58;2.10;;;2.00;;
4867;SDS011;2448;48.086;10.862;2022-07-29T04:03:24;10.23;;;2.30;;
4867;SDS011;2448;48.086;10.862;2022-07-29T04:06:03;2.70;;;2.10;;
4867;SDS011;2448;48.086;10.862;2022-07-29T04:08:31;2.30;;;1.87;;
4867;SDS011;2448;48.086;10.862;2022-07-29T04:10:56;3.43;;;1.90;;
4867;SDS011;2448;48.086;10.862;2022-07-29T04:13:22;1.70;;;1.60;;
4867;SDS011;2448;48.086;10.862;2022-07-29T04:15:47;1.40;;;1.30;;
4867;SDS011;2448;48.086;10.862;2022-07-29T04:18:12;2.63;;;2.10;;
4867;SDS011;2448;48.086;10.862;2022-07-29T04:20:38;2.00;;;1.90;;
4867;SDS011;2448;48.086;10.862;2022-07-29T04:23:03;2.73;;;2.07;;
4867;SDS011;2448;48.086;10.862;2022-07-29T04:25:28;1.73;;;1.63;;
4867;SDS011;2448;48.086;10.862;2022-07-29T04:27:54;1.50;;;1.43;;
4867;SDS011;2448;48.086;10.862;2022-07-29T04:30:25;2.10;;;2.00;;
4867;SDS011;2448;48.086;10.862;2022-07-29T04:32:50;1.50;;;1.40;;
4867;SDS011;2448;48.086;10.862;2022-07-29T04:35:16;1.90;;;1.80;;
4867;SDS011;2448;48.086;10.862;2022-07-29T04:37:41;2.13;;;1.80;;
4867;SDS011;2448;48.086;10.862;2022-07-29T04:40:07;6.90;;;2.70;;
4867;SDS011;2448;48.086;10.862;2022-07-29T04:42:32;1.80;;;1.70;;
4867;SDS011;2448;48.086;10.862;2022-07-29T04:44:57;1.40;;;1.40;;
4867;SDS011;2448;48.086;10.862;2022-07-29T04:47:23;1.40;;;1.30;;
4867;SDS011;2448;48.086;10.862;2022-07-29T04:49:48;2.27;;;1.70;;
4867;SDS011;2448;48.086;10.862;2022-07-29T04:52:13;1.60;;;1.50;;
4867;SDS011;2448;48.086;10.862;2022-07-29T04:54:39;1.50;;;1.40;;
4867;SDS011;2448;48.086;10.862;2022-07-29T04:57:04;4.83;;;1.63;;
4867;SDS011;2448;48.086;10.862;2022-07-29T04:59:30;6.87;;;1.60;;
4867;SDS011;2448;48.086;10.862;2022-07-29T05:01:55;3.30;;;1.40;;
4867;SDS011;2448;48.086;10.862;2022-07-29T05:04:20;3.70;;;1.57;;
4867;SDS011;2448;48.086;10.862;2022-07-29T05:06:46;2.93;;;1.50;;
4867;SDS011;2448;48.086;10.862;2022-07-29T05:09:11;5.37;;;1.70;;
4867;SDS011;2448;48.086;10.862;2022-07-29T05:11:36;4.83;;;1.93;;
4867;SDS011;2448;48.086;10.862;2022-07-29T05:14:02;3.23;;;1.40;;
4867;SDS011;2448;48.086;10.862;2022-07-29T05:16:27;4.60;;;1.70;;
4867;SDS011;2448;48.086;10.862;2022-07-29T05:18:52;1.83;;;1.70;;
4867;SDS011;2448;48.086;10.862;2022-07-29T05:21:18;6.13;;;1.30;;
4867;SDS011;2448;48.086;10.862;2022-07-29T05:23:43;1.33;;;1.23;;
4867;SDS011;2448;48.086;10.862;2022-07-29T05:26:09;2.00;;;1.27;;
4867;SDS011;2448;48.086;10.862;2022-07-29T05:28:34;2.87;;;1.90;;
4867;SDS011;2448;48.086;10.862;2022-07-29T05:31:00;3.27;;;1.33;;
4867;SDS011;2448;48.086;10.862;2022-07-29T05:33:25;1.93;;;1.40;;
4867;SDS011;2448;48.086;10.862;2022-07-29T05:35:50;1.50;;;1.40;;
4867;SDS011;2448;48.086;10.862;2022-07-29T05:38:16;1.57;;;1.47;;
4867;SDS011;2448;48.086;10.862;2022-07-29T05:40:41;1.20;;;1.10;;
4867;SDS011;2448;48.086;10.862;2022-07-29T05:43:07;3.07;;;1.63;;
4867;SDS011;2448;48.086;10.862;2022-07-29T05:45:32;1.93;;;1.70;;
4867;SDS011;2448;48.086;10.862;2022-07-29T05:47:58;2.10;;;1.60;;
4867;SDS011;2448;48.086;10.862;2022-07-29T05:50:23;2.10;;;1.53;;
4867;SDS011;2448;48.086;10.862;2022-07-29T05:52:49;1.60;;;1.50;;
4867;SDS011;2448;48.086;10.862;2022-07-29T05:55:15;2.80;;;1.77;;
4867;SDS011;2448;48.086;10.862;2022-07-29T05:57:40;3.93;;;1.40;;
4867;SDS011;2448;48.086;10.862;2022-07-29T06:00:06;2.30;;;2.10;;
4867;SDS011;2448;48.086;10.862;2022-07-29T06:02:37;3.07;;;1.60;;
4867;SDS011;2448;48.086;10.862;2022-07-29T06:05:03;2.57;;;1.77;;
4867;SDS011;2448;48.086;10.862;2022-07-29T06:07:28;2.00;;;1.90;;
4867;SDS011;2448;48.086;10.862;2022-07-29T06:09:53;4.30;;;2.03;;
4867;SDS011;2448;48.086;10.862;2022-07-29T06:12:19;2.70;;;2.00;;
4867;SDS011;2448;48.086;10.862;2022-07-29T06:14:44;3.07;;;1.80;;
4867;SDS011;2448;48.086;10.862;2022-07-29T06:17:10;1.97;;;1.87;;
4867;SDS011;2448;48.086;10.862;2022-07-29T06:19:36;4.57;;;1.90;;
4867;SDS011;2448;48.086;10.862;2022-07-29T06:22:02;2.10;;;2.00;;
4867;SDS011;2448;48.086;10.862;2022-07-29T06:24:28;1.80;;;1.70;;
4867;SDS011;2448;48.086;10.862;2022-07-29T06:26:53;2.13;;;1.90;;
4867;SDS011;2448;48.086;10.862;2022-07-29T06:29:19;10.73;;;2.10;;
4867;SDS011;2448;48.086;10.862;2022-07-29T06:31:44;2.43;;;2.23;;
4867;SDS011;2448;48.086;10.862;2022-07-29T06:34:10;6.00;;;2.23;;
4867;SDS011;2448;48.086;10.862;2022-07-29T06:36:35;4.60;;;1.80;;
4867;SDS011;2448;48.086;10.862;2022-07-29T06:39:03;3.90;;;1.80;;
4867;SDS011;2448;48.086;10.862;2022-07-29T06:41:29;1.97;;;1.80;;
4867;SDS011;2448;48.086;10.862;2022-07-29T06:43:56;1.50;;;1.40;;
4867;SDS011;2448;48.086;10.862;2022-07-29T06:46:21;1.30;;;1.30;;
4867;SDS011;2448;48.086;10.862;2022-07-29T06:48:47;1.17;;;1.17;;
4867;SDS011;2448;48.086;10.862;2022-07-29T06:51:13;1.70;;;1.43;;
4867;SDS011;2448;48.086;10.862;2022-07-29T06:53:38;1.30;;;1.23;;
4867;SDS011;2448;48.086;10.862;2022-07-29T06:56:04;1.23;;;1.13;;
4867;SDS011;2448;48.086;10.862;2022-07-29T06:58:30;1.40;;;1.30;;
4867;SDS011;2448;48.086;10.862;2022-07-29T07:00:56;1.30;;;1.20;;
4867;SDS011;2448;48.086;10.862;2022-07-29T07:03:21;2.33;;;1.47;;
4867;SDS011;2448;48.086;10.862;2022-07-29T07:05:47;1.10;;;1.10;;
4867;SDS011;2448;48.086;10.862;2022-07-29T07:08:13;1.47;;;1.40;;
4867;SDS011;2448;48.086;10.862;2022-07-29T07:10:39;4.17;;;1.40;;
4867;SDS011;2448;48.086;10.862;2022-07-29T07:13:05;1.70;;;1.60;;
4867;SDS011;2448;48.086;10.862;2022-07-29T07:15:31;1.67;;;1.40;;
4867;SDS011;2448;48.086;10.862;2022-07-29T07:17:56;2.20;;;1.17;;
4867;SDS011;2448;48.086;10.862;2022-07-29T07:20:22;1.40;;;1.30;;
4867;SDS011;2448;48.086;10.862;2022-07-29T07:22:48;1.53;;;1.43;;
4867;SDS011;2448;48.086;10.862;2022-07-29T07:25:13;1.33;;;1.30;;
4867;SDS011;2448;48.086;10.862;2022-07-29T07:27:38;0.83;;;0.83;;
4867;SDS011;2448;48.086;10.862;2022-07-29T07:30:05;1.03;;;1.00;;
4867;SDS011;2448;48.086;10.862;2022-07-29T07:32:31;1.50;;;1.40;;
4867;SDS011;2448;48.086;10.862;2022-07-29T07:34:56;1.53;;;1.40;;
4867;SDS011;2448;48.086;10.862;2022-07-29T07:37:22;1.27;;;1.27;;
4867;SDS011;2448;48.086;10.862;2022-07-29T07:39:49;1.73;;;1.27;;
4867;SDS011;2448;48.086;10.862;2022-07-29T07:42:15;1.43;;;1.40;;
4867;SDS011;2448;48.086;10.862;2022-07-29T07:44:40;1.23;;;1.23;;
4867;SDS011;2448;48.086;10.862;2022-07-29T07:47:06;1.50;;;1.40;;
4867;SDS011;2448;48.086;10.862;2022-07-29T07:49:31;1.50;;;1.50;;
4867;SDS011;2448;48.086;10.862;2022-07-29T07:51:56;1.80;;;1.70;;
4867;SDS011;2448;48.086;10.862;2022-07-29T07:54:22;1.90;;;1.73;;
4867;SDS011;2448;48.086;10.862;2022-07-29T07:56:47;2.63;;;1.40;;
4867;SDS011;2448;48.086;10.862;2022-07-29T07:59:16;1.37;;;1.37;;
4867;SDS011;2448;48.086;10.862;2022-07-29T08:01:41;1.20;;;1.20;;
4867;SDS011;2448;48.086;10.862;2022-07-29T08:04:07;2.33;;;1.47;;
4867;SDS011;2448;48.086;10.862;2022-07-29T08:06:33;1.00;;;1.00;;
4867;SDS011;2448;48.086;10.862;2022-07-29T08:09:00;1.13;;;1.10;;
4867;SDS011;2448;48.086;10.862;2022-07-29T08:11:25;1.43;;;1.43;;
4867;SDS011;2448;48.086;10.862;2022-07-29T08:13:50;1.23;;;1.23;;
4867;SDS011;2448;48.086;10.862;2022-07-29T08:16:17;1.50;;;1.50;;
4867;SDS011;2448;48.086;10.862;2022-07-29T08:18:43;23.73;;;2.40;;
4867;SDS011;2448;48.086;10.862;2022-07-29T08:21:08;1.20;;;1.20;;
4867;SDS011;2448;48.086;10.862;2022-07-29T08:23:34;5.00;;;1.43;;
4867;SDS011;2448;48.086;10.862;2022-07-29T08:26:11;1.40;;;1.40;;
4867;SDS011;2448;48.086;10.862;2022-07-29T08:28:38;1.33;;;1.23;;
4867;SDS011;2448;48.086;10.862;2022-07-29T08:31:03;4.80;;;1.77;;
4867;SDS011;2448;48.086;10.862;2022-07-29T08:33:28;2.20;;;1.90;;
4867;SDS011;2448;48.086;10.862;2022-07-29T08:35:54;1.30;;;1.30;;
4867;SDS011;2448;48.086;10.862;2022-07-29T08:38:19;1.53;;;1.43;;
4867;SDS011;2448;48.086;10.862;2022-07-29T08:40:45;1.83;;;1.50;;
4867;SDS011;2448;48.086;10.862;2022-07-29T08:43:11;1.23;;;1.23;;
4867;SDS011;2448;48.086;10.862;2022-07-29T08:45:43;1.60;;;1.20;;
4867;SDS011;2448;48.086;10.862;2022-07-29T08:48:11;2.43;;;1.40;;
4867;SDS011;2448;48.086;10.862;2022-07-29T08:50:36;1.33;;;1.23;;
4867;SDS011;2448;48.086;10.862;2022-07-29T08:53:02;1.70;;;1.60;;
4867;SDS011;2448;48.086;10.862;2022-07-29T08:55:28;1.37;;;1.37;;
4867;SDS011;2448;48.086;10.862;2022-07-29T08:57:54;1.33;;;1.33;;
4867;SDS011;2448;48.086;10.862;2022-07-29T09:00:20;1.10;;;1.10;;
4867;SDS011;2448;48.086;10.862;2022-07-29T09:02:47;1.40;;;1.40;;
4867;SDS011;2448;48.086;10.862;2022-07-29T09:05:16;4.87;;;1.60;;
4867;SDS011;2448;48.086;10.862;2022-07-29T09:07:42;5.67;;;1.53;;
4867;SDS011;2448;48.086;10.862;2022-07-29T09:10:09;1.60;;;1.50;;
4867;SDS011;2448;48.086;10.862;2022-07-29T09:12:34;1.47;;;1.40;;
4867;SDS011;2448;48.086;10.862;2022-07-29T09:15:00;1.77;;;1.67;;
4867;SDS011;2448;48.086;10.862;2022-07-29T09:17:41;1.60;;;1.60;;
4867;SDS011;2448;48.086;10.862;2022-07-29T09:20:11;1.57;;;1.47;;
4867;SDS011;2448;48.086;10.862;2022-07-29T09:22:36;1.50;;;1.50;;
4867;SDS011;2448;48.086;10.862;2022-07-29T09:25:02;9.13;;;1.63;;
4867;SDS011;2448;48.086;10.862;2022-07-29T09:27:28;1.47;;;1.47;;
4867;SDS011;2448;48.086;10.862;2022-07-29T09:30:01;1.80;;;1.70;;
4867;SDS011;2448;48.086;10.862;2022-07-29T09:32:27;1.93;;;1.83;;
4867;SDS011;2448;48.086;10.862;2022-07-29T09:37:37;1.83;;;1.73;;
4867;SDS011;2448;48.086;10.862;2022-07-29T09:40:10;2.00;;;1.90;;
4867;SDS011;2448;48.086;10.862;2022-07-29T09:42:36;1.57;;;1.50;;
4867;SDS011;2448;48.086;10.862;2022-07-29T09:45:02;1.43;;;1.43;;
4867;SDS011;2448;48.086;10.862;2022-07-29T09:47:40;1.90;;;1.80;;
4867;SDS011;2448;48.086;10.862;2022-07-29T09:50:05;2.10;;;1.90;;
4867;SDS011;2448;48.086;10.862;2022-07-29T09:52:31;2.10;;;1.87;;
4867;SDS011;2448;48.086;10.862;2022-07-29T09:55:06;1.93;;;1.87;;
4867;SDS011;2448;48.086;10.862;2022-07-29T09:57:31;2.97;;;1.80;;
4867;SDS011;2448;48.086;10.862;2022-07-29T10:00:07;2.17;;;1.70;;
4867;SDS011;2448;48.086;10.862;2022-07-29T10:02:39;2.37;;;1.77;;
4867;SDS011;2448;48.086;10.862;2022-07-29T10:05:06;1.93;;;1.80;;
4867;SDS011;2448;48.086;10.862;2022-07-29T10:07:50;2.17;;;2.03;;
4867;SDS011;2448;48.086;10.862;2022-07-29T10:10:27;2.10;;;1.97;;
4867;SDS011;2448;48.086;10.862;2022-07-29T10:12:54;2.17;;;1.97;;
4867;SDS011;2448;48.086;10.862;2022-07-29T10:15:20;1.87;;;1.80;;
4867;SDS011;2448;48.086;10.862;2022-07-29T10:17:46;3.23;;;1.83;;
4867;SDS011;2448;48.086;10.862;2022-07-29T10:20:13;1.83;;;1.70;;
4867;SDS011;2448;48.086;10.862;2022-07-29T10:22:39;2.13;;;2.03;;
4867;SDS011;2448;48.086;10.862;2022-07-29T10:25:05;10.87;;;2.07;;
4867;SDS011;2448;48.086;10.862;2022-07-29T10:27:30;3.03;;;1.70;;
4867;SDS011;2448;48.086;10.862;2022-07-29T10:29:56;2.20;;;1.47;;
4867;SDS011;2448;48.086;10.862;2022-07-29T10:35:24;1.97;;;1.83;;
4867;SDS011;2448;48.086;10.862;2022-07-29T10:43:21;1.90;;;1.80;;
4867;SDS011;2448;48.086;10.862;2022-07-29T10:45:48;2.47;;;2.23;;
4867;SDS011;2448;48.086;10.862;2022-07-29T10:48:14;2.23;;;2.13;;
4867;SDS011;2448;48.086;10.862;2022-07-29T10:50:56;2.10;;;2.00;;
4867;SDS011;2448;48.086;10.862;2022-07-29T10:53:45;1.77;;;1.70;;
4867;SDS011;2448;48.086;10.862;2022-07-29T10:56:26;1.93;;;1.80;;
4867;SDS011;2448;48.086;10.862;2022-07-29T11:01:47;1.90;;;1.70;;
4867;SDS011;2448;48.086;10.862;2022-07-29T11:04:12;1.60;;;1.60;;
4867;SDS011;2448;48.086;10.862;2022-07-29T11:09:22;1.57;;;1.47;;
4867;SDS011;2448;48.086;10.862;2022-07-29T11:11:47;2.80;;;2.03;;
4867;SDS011;2448;48.086;10.862;2022-07-29T11:14:14;1.63;;;1.53;;
4867;SDS011;2448;48.086;10.862;2022-07-29T11:19:23;2.10;;;1.87;;
4867;SDS011;2448;48.086;10.862;2022-07-29T11:21:49;1.40;;;1.40;;
4867;SDS011;2448;48.086;10.862;2022-07-29T11:24:22;1.30;;;1.20;;
4867;SDS011;2448;48.086;10.862;2022-07-29T11:29:35;1.33;;;1.33;;
4867;SDS011;2448;48.086;10.862;2022-07-29T11:32:11;1.40;;;1.40;;
4867;SDS011;2448;48.086;10.862;2022-07-29T11:34:37;1.40;;;1.40;;
4867;SDS011;2448;48.086;10.862;2022-07-29T11:39:41;1.73;;;1.63;;
4867;SDS011;2448;48.086;10.862;2022-07-29T11:47:24;1.93;;;1.83;;
4867;SDS011;2448;48.086;10.862;2022-07-29T11:49:50;1.30;;;1.30;;
4867;SDS011;2448;48.086;10.862;2022-07-29T11:52:16;2.03;;;1.93;;
4867;SDS011;2448;48.086;10.862;2022-07-29T11:54:42;1.83;;;1.77;;
4867;SDS011;2448;48.086;10.862;2022-07-29T11:57:07;2.70;;;1.97;;
4867;SDS011;2448;48.086;10.862;2022-07-29T11:59:40;1.67;;;1.67;;
4867;SDS011;2448;48.086;10.862;2022-07-29T12:02:06;1.77;;;1.67;;
4867;SDS011;2448;48.086;10.862;2022-07-29T12:04:32;1.80;;;1.70;;
4867;SDS011;2448;48.086;10.862;2022-07-29T12:06:57;3.13;;;1.70;;
4867;SDS011;2448;48.086;10.862;2022-07-29T12:09:23;1.83;;;1.73;;
4867;SDS011;2448;48.086;10.862;2022-07-29T12:11:49;5.53;;;1.90;;
4867;SDS011;2448;48.086;10.862;2022-07-29T12:14:30;1.50;;;1.40;;
4867;SDS011;2448;48.086;10.862;2022-07-29T12:16:57;1.97;;;1.87;;
4867;SDS011;2448;48.086;10.862;2022-07-29T12:19:22;2.43;;;2.23;;
4867;SDS011;2448;48.086;10.862;2022-07-29T12:21:49;1.63;;;1.60;;
4867;SDS011;2448;48.086;10.862;2022-07-29T12:24:14;2.20;;;2.10;;
4867;SDS011;2448;48.086;10.862;2022-07-29T12:26:58;2.10;;;2.00;;
4867;SDS011;2448;48.086;10.862;2022-07-29T12:29:24;2.37;;;2.17;;
4867;SDS011;2448;48.086;10.862;2022-07-29T12:31:52;2.07;;;1.97;;
4867;SDS011;2448;48.086;10.862;2022-07-29T12:34:20;2.33;;;2.23;;
4867;SDS011;2448;48.086;10.862;2022-07-29T12:36:47;1.50;;;1.50;;
4867;SDS011;2448;48.086;10.862;2022-07-29T12:39:13;1.80;;;1.70;;
4867;SDS011;2448;48.086;10.862;2022-07-29T12:41:40;2.47;;;2.27;;
4867;SDS011;2448;48.086;10.862;2022-07-29T12:44:05;5.13;;;1.97;;
4867;SDS011;2448;48.086;10.862;2022-07-29T12:46:31;2.70;;;1.90;;
4867;SDS011;2448;48.086;10.862;2022-07-29T12:48:56;1.83;;;1.73;;
4867;SDS011;2448;48.086;10.862;2022-07-29T12:51:32;11.23;;;2.30;;
4867;SDS011;2448;48.086;10.862;2022-07-29T12:54:01;2.17;;;2.00;;
4867;SDS011;2448;48.086;10.862;2022-07-29T12:56:27;2.80;;;2.43;;
4867;SDS011;2448;48.086;10.862;2022-07-29T12:58:52;12.80;;;2.30;;
4867;SDS011;2448;48.086;10.862;2022-07-29T13:01:18;5.60;;;2.37;;
4867;SDS011;2448;48.086;10.862;2022-07-29T13:03:45;2.50;;;2.30;;
4867;SDS011;2448;48.086;10.862;2022-07-29T13:06:30;2.30;;;2.20;;
4867;SDS011;2448;48.086;10.862;2022-07-29T13:09:00;2.40;;;2.20;;
4867;SDS011;2448;48.086;10.862;2022-07-29T13:11:29;2.43;;;2.30;;
4867;SDS011;2448;48.086;10.862;2022-07-29T13:13:54;6.10;;;2.10;;
4867;SDS011;2448;48.086;10.862;2022-07-29T13:16:20;2.60;;;2.10;;
4867;SDS011;2448;48.086;10.862;2022-07-29T13:18:45;2.20;;;2.10;;
4867;SDS011;2448;48.086;10.862;2022-07-29T13:21:11;2.20;;;2.10;;
4867;SDS011;2448;48.086;10.862;2022-07-29T13:23:37;4.03;;;2.20;;
4867;SDS011;2448;48.086;10.862;2022-07-29T13:26:06;2.63;;;2.43;;
4867;SDS011;2448;48.086;10.862;2022-07-29T13:28:32;2.67;;;2.30;;
4867;SDS011;2448;48.086;10.862;2022-07-29T13:30:59;1.60;;;1.50;;
4867;SDS011;2448;48.086;10.862;2022-07-29T13:33:24;1.80;;;1.70;;
4867;SDS011;2448;48.086;10.862;2022-07-29T13:35:50;1.90;;;1.80;;
4867;SDS011;2448;48.086;10.862;2022-07-29T13:38:15;1.77;;;1.67;;
4867;SDS011;2448;48.086;10.862;2022-07-29T13:40:41;2.10;;;2.00;;
4867;SDS011;2448;48.086;10.862;2022-07-29T13:43:09;5.30;;;2.03;;
4867;SDS011;2448;48.086;10.862;2022-07-29T13:45:34;2.37;;;2.10;;
4867;SDS011;2448;48.086;10.862;2022-07-29T13:47:59;2.23;;;2.13;;
4867;SDS011;2448;48.086;10.862;2022-07-29T13:50:25;1.70;;;1.60;;
4867;SDS011;2448;48.086;10.862;2022-07-29T13:52:51;3.30;;;1.90;;
4867;SDS011;2448;48.086;10.862;2022-07-29T13:55:16;3.17;;;2.33;;
4867;SDS011;2448;48.086;10.862;2022-07-29T13:57:42;2.50;;;2.27;;
4867;SDS011;2448;48.086;10.862;2022-07-29T14:00:07;2.43;;;2.23;;
4867;SDS011;2448;48.086;10.862;2022-07-29T14:02:33;2.23;;;2.03;;
4867;SDS011;2448;48.086;10.862;2022-07-29T14:04:59;15.53;;;3.07;;
4867;SDS011;2448;48.086;10.862;2022-07-29T14:07:24;4.73;;;2.43;;
4867;SDS011;2448;48.086;10.862;2022-07-29T14:09:50;2.30;;;2.20;;
4867;SDS011;2448;48.086;10.862;2022-07-29T14:12:15;4.30;;;3.10;;
4867;SDS011;2448;48.086;10.862;2022-07-29T14:14:41;2.63;;;2.43;;
4867;SDS011;2448;48.086;10.862;2022-07-29T14:17:06;2.60;;;2.40;;
4867;SDS011;2448;48.086;10.862;2022-07-29T14:19:32;2.73;;;2.53;;
4867;SDS011;2448;48.086;10.862;2022-07-29T14:22:00;2.70;;;2.50;;
4867;SDS011;2448;48.086;10.862;2022-07-29T14:24:26;3.53;;;2.50;;
4867;SDS011;2448;48.086;10.862;2022-07-29T14:26:52;6.03;;;2.10;;
4867;SDS011;2448;48.086;10.862;2022-07-29T14:29:17;1.93;;;1.83;;
4867;SDS011;2448;48.086;10.862;2022-07-29T14:31:43;2.50;;;2.30;;
4867;SDS011;2448;48.086;10.862;2022-07-29T14:34:08;2.17;;;2.07;;
4867;SDS011;2448;48.086;10.862;2022-07-29T14:36:34;2.50;;;2.30;;
4867;SDS011;2448;48.086;10.862;2022-07-29T14:39:00;1.90;;;1.80;;
4867;SDS011;2448;48.086;10.862;2022-07-29T14:41:25;2.03;;;1.93;;
4867;SDS011;2448;48.086;10.862;2022-07-29T14:43:53;2.10;;;2.00;;
4867;SDS011;2448;48.086;10.862;2022-07-29T14:46:18;2.03;;;1.93;;
4867;SDS011;2448;48.086;10.862;2022-07-29T14:48:44;1.70;;;1.60;;
4867;SDS011;2448;48.086;10.862;2022-07-29T14:51:09;1.87;;;1.77;;
4867;SDS011;2448;48.086;10.862;2022-07-29T14:53:35;2.00;;;1.90;;
4867;SDS011;2448;48.086;10.862;2022-07-29T14:56:01;2.70;;;2.00;;
4867;SDS011;2448;48.086;10.862;2022-07-29T14:58:26;1.70;;;1.70;;
4867;SDS011;2448;48.086;10.862;2022-07-29T15:00:51;1.90;;;1.80;;
4867;SDS011;2448;48.086;10.862;2022-07-29T15:03:17;1.80;;;1.80;;
4867;SDS011;2448;48.086;10.862;2022-07-29T15:05:43;1.50;;;1.50;;
4867;SDS011;2448;48.086;10.862;2022-07-29T15:08:08;3.70;;;1.83;;
4867;SDS011;2448;48.086;10.862;2022-07-29T15:10:34;1.90;;;1.80;;
4867;SDS011;2448;48.086;10.862;2022-07-29T15:12:59;2.00;;;1.90;;
4867;SDS011;2448;48.086;10.862;2022-07-29T15:15:25;1.93;;;1.83;;
4867;SDS011;2448;48.086;10.862;2022-07-29T15:17:50;1.70;;;1.60;;
4867;SDS011;2448;48.086;10.862;2022-07-29T15:20:16;2.00;;;1.90;;
4867;SDS011;2448;48.086;10.862;2022-07-29T15:22:41;1.57;;;1.50;;
4867;SDS011;2448;48.086;10.862;2022-07-29T15:25:08;1.87;;;1.77;;
4867;SDS011;2448;48.086;10.862;2022-07-29T15:27:33;1.77;;;1.67;;
4867;SDS011;2448;48.086;10.862;2022-07-29T15:29:58;2.27;;;1.50;;
4867;SDS011;2448;48.086;10.862;2022-07-29T15:32:24;1.73;;;1.63;;
4867;SDS011;2448;48.086;10.862;2022-07-29T15:34:49;3.67;;;1.57;;
4867;SDS011;2448;48.086;10.862;2022-07-29T15:37:15;1.80;;;1.70;;
4867;SDS011;2448;48.086;10.862;2022-07-29T15:39:40;2.30;;;2.10;;
4867;SDS011;2448;48.086;10.862;2022-07-29T15:42:05;3.80;;;1.73;;
4867;SDS011;2448;48.086;10.862;2022-07-29T15:44:31;1.90;;;1.80;;